Time;durP1;ratioP1;P1;durP2;ratioP2;P2;SDS_P1;SDS_P2;PMS_P1;PMS_P2;Temp;Humidity;BMP_temperature;BMP_pressure;BME280_temperature;BME280_humidity;BME280_pressure;Samples;Min_cycle;Max_cycle;Signal;HPM_P1;HPM_P2
2021/07/06 00:02:07;;;;;;;1999.90;999.90;;;6.80;99.90;;;;;;5070683;28;20198;-42
2021/07/06 00:04:33;;;;;;;1999.90;999.90;;;6.70;99.90;;;;;;5071127;28;20166;-43
2021/07/06 00:07:00;;;;;;;1999.90;999.90;;;6.70;99.90;;;;;;5069950;28;20266;-43
2021/07/06 00:09:27;;;;;;;1999.90;999.90;;;6.70;99.90;;;;;;5071066;28;20176;-42
2021/07/06 00:11:53;;;;;;;1999.90;999.90;;;6.60;99.90;;;;;;5070831;28;20314;-43
2021/07/06 00:14:20;;;;;;;1999.90;999.90;;;6.70;99.90;;;;;;5071004;28;20211;-43
2021/07/06 00:16:47;;;;;;;1999.90;999.90;;;6.50;99.90;;;;;;5070802;28;20200;-50
2021/07/06 00:19:19;;;;;;;1999.90;999.90;;;6.60;99.90;;;;;;5071099;28;20689;-43
2021/07/06 00:21:46;;;;;;;1999.90;999.90;;;6.60;99.90;;;;;;5070750;28;20502;-43
2021/07/06 00:24:13;;;;;;;1999.90;999.90;;;6.60;99.90;;;;;;5069246;28;20202;-46
2021/07/06 00:26:39;;;;;;;1999.90;999.90;;;6.60;99.90;;;;;;5071169;28;20170;-49
2021/07/06 00:29:06;;;;;;;1999.90;999.90;;;6.60;99.90;;;;;;5070651;28;20184;-42
2021/07/06 00:31:33;;;;;;;1999.90;999.90;;;6.60;99.90;;;;;;5071193;28;20200;-42
2021/07/06 00:34:00;;;;;;;1999.90;999.90;;;6.70;99.90;;;;;;5071210;28;20189;-43
2021/07/06 00:36:26;;;;;;;1999.90;999.90;;;6.60;99.90;;;;;;5070602;28;20167;-42
2021/07/06 00:38:53;;;;;;;1999.90;999.90;;;6.70;99.90;;;;;;5071108;28;20584;-45
2021/07/06 00:41:20;;;;;;;1999.90;999.90;;;6.60;99.90;;;;;;5070664;28;20307;-46
2021/07/06 00:43:46;;;;;;;1999.90;999.90;;;6.50;99.90;;;;;;5070656;28;20218;-43
2021/07/06 00:46:13;;;;;;;1999.90;999.90;;;6.60;99.90;;;;;;5070588;28;20645;-43
2021/07/06 00:48:40;;;;;;;1999.90;999.90;;;6.60;99.90;;;;;;5070878;28;20569;-42
2021/07/06 00:51:07;;;;;;;1999.90;999.90;;;6.60;99.90;;;;;;5071901;28;20623;-48
2021/07/06 00:53:33;;;;;;;1999.90;999.90;;;6.60;99.90;;;;;;5074376;28;20170;-42
2021/07/06 00:56:00;;;;;;;1999.90;999.90;;;6.50;99.90;;;;;;5074337;28;20635;-43
2021/07/06 00:58:28;;;;;;;1999.90;999.90;;;6.40;99.90;;;;;;5073878;28;20174;-50
2021/07/06 01:00:55;;;;;;;1999.90;999.90;;;6.30;99.90;;;;;;5074416;28;20178;-44
2021/07/06 01:03:23;;;;;;;1999.90;999.90;;;6.30;99.90;;;;;;5073945;28;20189;-42
2021/07/06 01:05:50;;;;;;;1999.90;999.90;;;6.20;99.90;;;;;;5073801;28;20177;-48
2021/07/06 01:08:17;;;;;;;1999.90;999.90;;;6.10;99.90;;;;;;5074195;28;20173;-42
2021/07/06 01:10:44;;;;;;;1999.90;999.90;;;6.20;99.90;;;;;;5073673;28;20176;-42
2021/07/06 01:13:11;;;;;;;1999.90;999.90;;;6.30;99.90;;;;;;5073621;28;20691;-45
2021/07/06 01:15:38;;;;;;;1999.90;999.90;;;6.40;99.90;;;;;;5055895;28;20636;-47
2021/07/06 01:18:25;;;;;;;1999.90;999.90;;;6.50;99.90;;;;;;5073739;28;20254;-42
2021/07/06 01:20:54;;;;;;;1999.90;999.90;;;6.40;99.90;;;;;;5073837;28;20156;-46
2021/07/06 01:23:26;;;;;;;1999.90;999.90;;;6.40;99.90;;;;;;5073740;28;20173;-43
2021/07/06 01:26:02;;;;;;;1999.90;999.90;;;6.40;99.90;;;;;;5073626;28;20168;-42
2021/07/06 01:28:28;;;;;;;1999.90;999.90;;;6.40;99.90;;;;;;5073963;28;20156;-44
2021/07/06 01:30:55;;;;;;;1999.90;999.90;;;6.40;99.90;;;;;;5073245;28;20180;-42
2021/07/06 01:33:28;;;;;;;1999.90;999.90;;;6.40;99.90;;;;;;5073465;28;20179;-43
2021/07/06 01:35:57;;;;;;;1999.90;999.90;;;6.40;99.90;;;;;;5073571;28;20527;-44
2021/07/06 01:38:24;;;;;;;1999.90;999.90;;;6.40;99.90;;;;;;5073111;28;20659;-42
2021/07/06 01:40:51;;;;;;;1999.90;999.90;;;6.50;99.90;;;;;;5073338;28;20237;-42
2021/07/06 01:43:18;;;;;;;1999.90;999.90;;;6.50;99.90;;;;;;5073297;28;20656;-44
2021/07/06 01:45:45;;;;;;;1999.90;999.90;;;6.50;99.90;;;;;;5073291;28;20164;-46
2021/07/06 01:48:11;;;;;;;1999.90;999.90;;;6.50;99.90;;;;;;5072900;28;20177;-43
2021/07/06 01:50:42;;;;;;;1999.90;999.90;;;6.40;99.90;;;;;;5073414;28;20668;-42
2021/07/06 01:53:11;;;;;;;1999.90;999.90;;;6.40;99.90;;;;;;5072926;28;20161;-43
2021/07/06 01:55:40;;;;;;;1999.90;999.90;;;6.40;99.90;;;;;;5073433;28;20164;-47
2021/07/06 01:58:10;;;;;;;1999.90;999.90;;;6.30;99.90;;;;;;5072797;28;20170;-43
2021/07/06 02:00:42;;;;;;;1999.90;999.90;;;6.20;99.90;;;;;;5072840;28;20170;-42
2021/07/06 02:03:11;;;;;;;1999.90;999.90;;;6.00;99.90;;;;;;5073063;28;20172;-42
2021/07/06 02:05:43;;;;;;;1999.90;999.90;;;6.00;99.90;;;;;;5072509;28;20180;-42
2021/07/06 02:08:12;;;;;;;1999.90;999.90;;;5.90;99.90;;;;;;5073088;28;20588;-42
2021/07/06 02:10:40;;;;;;;1999.90;999.90;;;5.90;99.90;;;;;;5072761;28;20226;-42
2021/07/06 02:13:17;;;;;;;1999.90;999.90;;;5.90;99.90;;;;;;5072547;28;20547;-44
2021/07/06 02:15:45;;;;;;;1999.90;999.90;;;5.90;99.90;;;;;;5072754;28;20208;-42
2021/07/06 02:18:22;;;;;;;1999.90;999.90;;;5.80;99.90;;;;;;5072719;28;20631;-45
2021/07/06 02:20:52;;;;;;;1999.90;999.90;;;5.80;99.90;;;;;;5072342;28;20157;-45
2021/07/06 02:23:19;;;;;;;1999.90;999.90;;;5.80;99.90;;;;;;5072942;28;20174;-44
2021/07/06 02:25:47;;;;;;;1999.90;999.90;;;5.80;99.90;;;;;;5072343;28;20699;-42
2021/07/06 02:28:14;;;;;;;1999.90;999.90;;;5.80;99.90;;;;;;5072229;28;20197;-48
2021/07/06 02:30:41;;;;;;;1999.90;999.90;;;5.80;99.90;;;;;;5072707;28;20708;-42
2021/07/06 02:33:08;;;;;;;1999.90;999.90;;;5.80;99.90;;;;;;5072025;28;20179;-42
2021/07/06 02:35:35;;;;;;;1999.90;999.90;;;5.70;99.90;;;;;;5072441;28;20639;-42
2021/07/06 02:38:03;;;;;;;1999.90;999.90;;;5.60;99.90;;;;;;5072428;28;20575;-42
2021/07/06 02:40:30;;;;;;;1999.90;999.90;;;5.50;99.90;;;;;;5072533;28;20222;-42
2021/07/06 02:42:58;;;;;;;1999.90;999.90;;;5.60;99.90;;;;;;5072371;28;20291;-42
2021/07/06 02:45:26;;;;;;;1999.90;999.90;;;5.80;99.90;;;;;;5072183;28;20166;-45
2021/07/06 02:47:53;;;;;;;1999.90;999.90;;;5.80;99.90;;;;;;5071787;28;20207;-42
2021/07/06 02:50:21;;;;;;;1999.90;999.90;;;5.80;99.90;;;;;;5072016;28;20186;-47
2021/07/06 02:52:48;;;;;;;1999.90;999.90;;;5.70;99.90;;;;;;5072366;28;20514;-42
2021/07/06 02:55:16;;;;;;;1999.90;999.90;;;5.70;99.90;;;;;;5071667;28;20169;-45
2021/07/06 02:57:44;;;;;;;1999.90;999.90;;;5.70;99.90;;;;;;5072139;28;20188;-44
2021/07/06 03:00:23;;;;;;;1999.90;999.90;;;5.70;99.90;;;;;;5071565;28;20165;-42
2021/07/06 03:02:55;;;;;;;1999.90;999.90;;;5.70;99.90;;;;;;5071567;28;20263;-44
2021/07/06 03:05:27;;;;;;;1999.90;999.90;;;5.60;99.90;;;;;;5071841;28;20188;-42
2021/07/06 03:07:55;;;;;;;1999.90;999.90;;;5.60;99.90;;;;;;5071663;28;20244;-44
2021/07/06 03:10:30;;;;;;;1999.90;999.90;;;5.50;99.90;;;;;;5071618;28;20221;-42
2021/07/06 03:12:57;;;;;;;1999.90;999.90;;;5.60;99.90;;;;;;5071300;28;20224;-43
2021/07/06 03:15:26;;;;;;;1999.90;999.90;;;5.60;99.90;;;;;;5071261;28;20176;-45
2021/07/06 03:17:54;;;;;;;1999.90;999.90;;;5.60;99.90;;;;;;5071658;28;20268;-47
2021/07/06 03:20:22;;;;;;;1999.90;999.90;;;5.60;99.90;;;;;;5071436;28;20172;-42
2021/07/06 03:22:49;;;;;;;1999.90;999.90;;;5.40;99.90;;;;;;5071199;28;20657;-41
2021/07/06 03:25:19;;;;;;;1999.90;999.90;;;5.30;99.90;;;;;;5071945;28;20164;-43
2021/07/06 03:27:46;;;;;;;1999.90;999.90;;;5.20;99.90;;;;;;5071197;28;20785;-42
2021/07/06 03:30:18;;;;;;;1999.90;999.90;;;5.20;99.90;;;;;;5071216;28;20602;-45
2021/07/06 03:32:46;;;;;;;1999.90;999.90;;;5.20;99.90;;;;;;5071563;28;20149;-43
2021/07/06 03:35:14;;;;;;;1999.90;999.90;;;5.20;99.90;;;;;;5071436;28;20205;-42
2021/07/06 03:37:41;;;;;;;1999.90;999.90;;;5.20;99.90;;;;;;5071156;28;20592;-42
2021/07/06 03:40:09;;;;;;;1999.90;999.90;;;5.10;99.90;;;;;;5071014;28;20169;-44
2021/07/06 03:42:37;;;;;;;1999.90;999.90;;;5.20;99.90;;;;;;5071043;28;20204;-42
2021/07/06 03:45:06;;;;;;;1999.90;999.90;;;5.10;99.90;;;;;;5071073;28;20168;-48
2021/07/06 03:47:33;;;;;;;1999.90;999.90;;;5.00;99.90;;;;;;5071322;28;20666;-49
2021/07/06 03:50:00;;;;;;;1999.90;999.90;;;5.00;99.90;;;;;;5071019;28;20169;-42
2021/07/06 03:52:27;;;;;;;1999.90;999.90;;;5.10;99.90;;;;;;5071555;28;20168;-42
2021/07/06 03:54:54;;;;;;;1999.90;999.90;;;5.10;99.90;;;;;;5071024;28;20218;-43
2021/07/06 03:57:30;;;;;;;1999.90;999.90;;;5.10;99.90;;;;;;5070884;28;20179;-42
2021/07/06 04:00:03;;;;;;;1999.90;999.90;;;5.20;99.90;;;;;;5071454;28;20168;-42
2021/07/06 04:02:30;;;;;;;1999.90;999.90;;;5.20;99.90;;;;;;5070787;28;20207;-42
2021/07/06 04:04:57;;;;;;;1999.90;999.90;;;5.20;99.90;;;;;;5071102;28;20614;-42
2021/07/06 04:07:23;;;;;;;1999.90;999.90;;;5.20;99.90;;;;;;5071113;28;20172;-42
2021/07/06 04:09:50;;;;;;;1999.90;999.90;;;5.20;99.90;;;;;;5071011;28;20527;-45
2021/07/06 04:12:17;;;;;;;1999.90;999.90;;;5.20;99.90;;;;;;5070476;28;20216;-43
2021/07/06 04:14:44;;;;;;;1999.90;999.90;;;5.10;99.90;;;;;;5071112;28;20169;-48
2021/07/06 04:17:11;;;;;;;1999.90;999.90;;;5.10;99.90;;;;;;5070912;28;20179;-42
2021/07/06 04:19:37;;;;;;;1999.90;999.90;;;5.10;99.90;;;;;;5070985;28;20172;-42
2021/07/06 04:22:04;;;;;;;1999.90;999.90;;;5.10;99.90;;;;;;5070849;28;20204;-47
2021/07/06 04:24:31;;;;;;;1999.90;999.90;;;5.00;99.90;;;;;;5070534;28;20198;-42
2021/07/06 04:26:59;;;;;;;1999.90;999.90;;;4.90;99.90;;;;;;5073889;28;20169;-45
2021/07/06 04:29:26;;;;;;;1999.90;999.90;;;4.90;99.90;;;;;;5074312;28;20199;-42
2021/07/06 04:31:54;;;;;;;1999.90;999.90;;;4.90;99.90;;;;;;5056237;28;20188;-42
2021/07/06 04:34:22;;;;;;;1999.90;999.90;;;4.90;99.90;;;;;;5074740;28;20172;-43
2021/07/06 04:36:49;;;;;;;1999.90;999.90;;;4.90;99.90;;;;;;5074493;28;20191;-42
2021/07/06 04:39:16;;;;;;;1999.90;999.90;;;4.80;99.90;;;;;;5074365;28;20171;-48
2021/07/06 04:41:45;;;;;;;1999.90;999.90;;;4.90;99.90;;;;;;5074188;28;20710;-45
2021/07/06 04:44:12;;;;;;;1999.90;999.90;;;5.00;99.90;;;;;;5074062;28;20172;-44
2021/07/06 04:46:40;;;;;;;1999.90;999.90;;;4.90;99.90;;;;;;5074104;28;20263;-43
2021/07/06 04:49:07;;;;;;;1999.90;999.90;;;4.90;99.90;;;;;;5074176;28;20219;-46
2021/07/06 04:51:35;;;;;;;1999.90;999.90;;;4.90;99.90;;;;;;5074078;28;20169;-43
2021/07/06 04:54:01;;;;;;;1999.90;999.90;;;4.90;99.90;;;;;;5074375;28;20169;-43
2021/07/06 04:56:28;;;;;;;1999.90;999.90;;;4.90;99.90;;;;;;5073840;28;20263;-43
2021/07/06 04:58:56;;;;;;;1999.90;999.90;;;4.90;99.90;;;;;;5073646;28;20168;-47
2021/07/06 05:01:23;;;;;;;1999.90;999.90;;;5.00;99.90;;;;;;5074062;28;20212;-43
2021/07/06 05:03:50;;;;;;;1999.90;999.90;;;5.00;99.90;;;;;;5073612;28;20165;-43
2021/07/06 05:06:20;;;;;;;1999.90;999.90;;;5.00;99.90;;;;;;5073448;28;20186;-43
2021/07/06 05:08:48;;;;;;;1999.90;999.90;;;5.00;99.90;;;;;;5073912;28;20172;-43
2021/07/06 05:11:15;;;;;;;1999.90;999.90;;;4.90;99.90;;;;;;5073189;28;20536;-43
2021/07/06 05:13:43;;;;;;;1999.90;999.90;;;5.00;99.90;;;;;;5073896;28;20616;-45
2021/07/06 05:16:10;;;;;;;1999.90;999.90;;;4.90;99.90;;;;;;5073657;28;20259;-45
2021/07/06 05:18:36;;;;;;;1999.90;999.90;;;4.90;99.90;;;;;;5073736;28;20160;-44
2021/07/06 05:21:03;;;;;;;1999.90;999.90;;;4.90;99.90;;;;;;5073694;28;20198;-50
2021/07/06 05:23:30;;;;;;;1999.90;999.90;;;5.00;99.90;;;;;;5073795;28;20176;-43
2021/07/06 05:25:57;;;;;;;1999.90;999.90;;;4.90;99.90;;;;;;5073552;28;20168;-45
2021/07/06 05:28:24;;;;;;;1999.90;999.90;;;5.00;99.90;;;;;;5073591;28;20242;-44
2021/07/06 05:30:51;;;;;;;1999.90;999.90;;;4.90;99.90;;;;;;5073144;28;20199;-48
2021/07/06 05:33:18;;;;;;;1999.90;999.90;;;4.90;99.90;;;;;;5072994;28;20306;-48
2021/07/06 05:35:45;;;;;;;1999.90;999.90;;;4.90;99.90;;;;;;5073658;28;20156;-45
2021/07/06 05:38:12;;;;;;;1999.90;999.90;;;4.90;99.90;;;;;;5072374;28;20642;-45
2021/07/06 05:40:39;;;;;;;1999.90;999.90;;;4.90;99.90;;;;;;5073162;28;20250;-44
2021/07/06 05:43:07;;;;;;;1999.90;999.90;;;4.80;99.90;;;;;;5073427;28;20233;-42
2021/07/06 05:45:37;;;;;;;1999.90;999.90;;;4.80;99.90;;;;;;5073104;28;20169;-42
2021/07/06 05:48:04;;;;;;;1999.90;999.90;;;4.80;99.90;;;;;;5073396;28;20165;-44
2021/07/06 05:50:31;;;;;;;1999.90;999.90;;;4.80;99.90;;;;;;5073033;28;20176;-43
2021/07/06 05:52:58;;;;;;;1999.90;999.90;;;4.90;99.90;;;;;;5072987;28;20599;-44
2021/07/06 05:55:25;;;;;;;1999.90;999.90;;;4.90;99.90;;;;;;5072973;28;20287;-44
2021/07/06 05:57:52;;;;;;;1999.90;999.90;;;4.80;99.90;;;;;;5073048;28;20164;-43
2021/07/06 06:00:19;;;;;;;1999.90;999.90;;;4.80;99.90;;;;;;5072362;28;20172;-43
2021/07/06 06:02:46;;;;;;;1999.90;999.90;;;4.90;99.90;;;;;;5072853;28;20666;-44
2021/07/06 06:05:13;;;;;;;1999.90;999.90;;;4.90;99.90;;;;;;5072482;28;20222;-46
2021/07/06 06:07:45;;;;;;;1999.90;999.90;;;4.80;99.90;;;;;;5072725;28;20627;-43
2021/07/06 06:10:13;;;;;;;1999.90;999.90;;;4.80;99.90;;;;;;5072929;28;20172;-61
2021/07/06 06:12:40;;;;;;;1999.90;999.90;;;4.80;99.90;;;;;;5071926;28;20228;-47
2021/07/06 06:15:09;;;;;;;1999.90;999.90;;;4.90;99.90;;;;;;5071379;28;20306;-44
2021/07/06 06:17:37;;;;;;;1999.90;999.90;;;4.80;99.90;;;;;;5070950;28;20180;-43
2021/07/06 06:20:07;;;;;;;1999.90;999.90;;;4.80;99.90;;;;;;5072330;28;20204;-40
2021/07/06 06:22:35;;;;;;;1999.90;999.90;;;4.90;99.90;;;;;;5072738;28;20604;-39
2021/07/06 06:25:03;;;;;;;1999.90;999.90;;;4.90;99.90;;;;;;5072329;28;20173;-42
2021/07/06 06:27:30;;;;;;;1999.90;999.90;;;4.90;99.90;;;;;;5071975;28;20179;-40
2021/07/06 06:29:57;;;;;;;1999.90;999.90;;;5.00;99.90;;;;;;5072407;28;20196;-40
2021/07/06 06:32:23;;;;;;;1999.90;999.90;;;5.00;99.90;;;;;;5071937;28;20215;-40
2021/07/06 06:34:51;;;;;;;1999.90;999.90;;;5.10;99.90;;;;;;5071906;28;20222;-40
2021/07/06 06:37:18;;;;;;;1999.90;999.90;;;5.10;99.90;;;;;;5072346;28;20622;-41
2021/07/06 06:39:45;;;;;;;1999.90;999.90;;;5.30;99.90;;;;;;5071448;28;20183;-40
2021/07/06 06:42:12;;;;;;;1999.90;999.90;;;5.30;99.90;;;;;;5071491;28;20677;-42
2021/07/06 06:44:39;;;;;;;1999.90;999.90;;;5.40;99.90;;;;;;5071828;28;20171;-42
2021/07/06 06:47:07;;;;;;;1999.90;999.90;;;5.40;99.90;;;;;;5071612;28;20200;-45
2021/07/06 06:49:35;;;;;;;1999.90;999.90;;;5.60;99.90;;;;;;5071169;28;20606;-45
2021/07/06 06:52:02;;;;;;;1999.90;999.90;;;5.70;99.90;;;;;;5071712;28;20173;-44
2021/07/06 06:54:31;;;;;;;1999.90;999.90;;;5.80;99.90;;;;;;5071492;28;20194;-46
2021/07/06 06:56:59;;;;;;;1999.90;999.90;;;6.00;99.90;;;;;;5071600;28;20207;-43
2021/07/06 06:59:25;;;;;;;1999.90;999.90;;;6.20;99.90;;;;;;5071607;28;20175;-42
2021/07/06 07:02:16;;;;;;;1999.90;999.90;;;6.30;99.90;;;;;;5071653;28;20323;-61
2021/07/06 07:04:39;;;;;;;1999.90;999.90;;;6.50;99.90;;;;;;5071705;28;20234;-53
2021/07/06 07:07:06;;;;;;;1999.90;999.90;;;6.60;99.90;;;;;;5072386;28;20166;-50
2021/07/06 07:09:33;;;;;;;1999.90;999.90;;;6.80;99.90;;;;;;5071893;28;20308;-59
2021/07/06 07:12:00;;;;;;;1999.90;999.90;;;7.00;99.90;;;;;;5071407;28;20231;-43
2021/07/06 07:14:27;;;;;;;1999.90;999.90;;;7.00;99.90;;;;;;5071067;28;20183;-40
2021/07/06 07:16:53;;;;;;;1999.90;999.90;;;7.10;99.90;;;;;;5071043;28;20262;-41
2021/07/06 07:19:20;;;;;;;1999.90;999.90;;;7.20;99.90;;;;;;5071575;28;20175;-41
2021/07/06 07:21:50;;;;;;;1999.90;999.90;;;7.80;99.90;;;;;;5071240;28;20601;-53
2021/07/06 07:24:17;;;;;;;1999.90;999.90;;;9.00;99.90;;;;;;5071276;28;20513;-46
2021/07/06 07:26:44;;;;;;;1999.90;999.90;;;9.90;99.90;;;;;;5071301;28;20258;-42
2021/07/06 07:29:11;;;;;;;1999.90;999.90;;;10.20;99.90;;;;;;5071123;28;20226;-56
2021/07/06 07:31:37;;;;;;;1999.90;999.90;;;9.90;99.90;;;;;;5071114;28;20206;-45
2021/07/06 07:34:04;;;;;;;1999.90;999.90;;;9.60;99.90;;;;;;5071466;28;20169;-43
2021/07/06 07:36:31;;;;;;;1999.90;999.90;;;9.30;99.90;;;;;;5070889;28;20187;-47
2021/07/06 07:38:58;;;;;;;1999.90;999.90;;;8.90;99.90;;;;;;5071171;28;20180;-46
2021/07/06 07:41:26;;;;;;;1999.90;999.90;;;8.70;99.90;;;;;;5070866;28;20291;-44
2021/07/06 07:43:58;;;;;;;1999.90;999.90;;;8.50;99.90;;;;;;5070778;28;20175;-45
2021/07/06 07:46:26;;;;;;;1999.90;999.90;;;8.60;99.90;;;;;;5071173;28;20230;-46
2021/07/06 07:48:53;;;;;;;1999.90;999.90;;;8.60;99.90;;;;;;5070295;28;20231;-48
2021/07/06 07:51:20;;;;;;;1999.90;999.90;;;8.60;99.90;;;;;;5070895;28;20211;-45
2021/07/06 07:53:47;;;;;;;1999.90;999.90;;;8.60;99.90;;;;;;5071212;28;20250;-61
2021/07/06 07:56:14;;;;;;;1999.90;999.90;;;9.10;99.90;;;;;;5070752;28;20175;-54
2021/07/06 07:58:41;;;;;;;1999.90;999.90;;;10.30;99.90;;;;;;5071008;28;20179;-40
2021/07/06 08:01:08;;;;;;;1999.90;999.90;;;10.40;99.90;;;;;;5073935;28;20259;-39
2021/07/06 08:03:34;;;;;;;1999.90;999.90;;;10.30;99.90;;;;;;5074793;28;20533;-58
2021/07/06 08:06:01;;;;;;;1999.90;999.90;;;10.10;99.90;;;;;;5073037;28;20226;-54
2021/07/06 08:08:28;;;;;;;1999.90;999.90;;;10.20;99.90;;;;;;5075030;28;20528;-43
2021/07/06 08:10:58;;;;;;;1999.90;999.90;;;10.20;99.90;;;;;;5074460;28;20168;-45
2021/07/06 08:13:27;;;;;;;1999.90;999.90;;;10.10;99.90;;;;;;5074674;28;20192;-57
2021/07/06 08:15:55;;;;;;;1999.90;999.90;;;10.50;99.90;;;;;;5074726;28;20169;-56
2021/07/06 08:18:22;;;;;;;1999.90;999.90;;;11.30;99.90;;;;;;5074629;28;20187;-46
2021/07/06 08:20:49;;;;;;;1999.90;999.90;;;11.40;99.90;;;;;;5075421;28;20168;-49
2021/07/06 08:23:17;;;;;;;1999.90;999.90;;;11.30;99.90;;;;;;5074168;28;20246;-46
2021/07/06 08:25:44;;;;;;;1999.90;999.90;;;11.00;99.90;;;;;;5074185;28;20170;-50
2021/07/06 08:28:12;;;;;;;1999.90;999.90;;;11.00;99.90;;;;;;5073572;28;20173;-48
2021/07/06 08:30:39;;;;;;;1999.90;999.90;;;11.00;99.90;;;;;;5054362;28;20305;-46
2021/07/06 08:33:07;;;;;;;1999.90;999.90;;;10.90;99.90;;;;;;5073581;28;20279;-48
2021/07/06 08:35:33;;;;;;;1999.90;999.90;;;10.80;99.90;;;;;;5073963;28;20211;-45
2021/07/06 08:38:00;;;;;;;1999.90;999.90;;;10.80;99.90;;;;;;5074134;28;20172;-45
2021/07/06 08:40:28;;;;;;;1999.90;999.90;;;10.80;99.90;;;;;;5074260;28;20229;-44
2021/07/06 08:42:58;;;;;;;1999.90;999.90;;;10.80;99.90;;;;;;5074360;28;20295;-44
2021/07/06 08:45:26;;;;;;;1999.90;999.90;;;11.20;99.90;;;;;;5073720;28;20643;-44
2021/07/06 08:47:54;;;;;;;1999.90;999.90;;;11.80;99.90;;;;;;5072587;28;20283;-60
2021/07/06 08:50:22;;;;;;;1999.90;999.90;;;11.90;99.90;;;;;;5072702;28;20200;-51
2021/07/06 08:52:48;;;;;;;1999.90;999.90;;;11.90;99.90;;;;;;5073902;28;20171;-46
2021/07/06 08:55:20;;;;;;;1999.90;999.90;;;11.90;99.90;;;;;;5074245;28;20635;-45
2021/07/06 08:57:48;;;;;;;1999.90;999.90;;;11.80;99.90;;;;;;5073360;28;20225;-46
2021/07/06 09:00:17;;;;;;;1999.90;999.90;;;11.70;99.90;;;;;;5073431;28;20161;-50
2021/07/06 09:03:04;;;;;;;1999.90;999.90;;;11.60;99.90;;;;;;5073174;28;20530;-61
2021/07/06 09:05:32;;;;;;;1999.90;999.90;;;11.80;99.90;;;;;;5072773;28;20176;-49
2021/07/06 09:07:59;;;;;;;1999.90;999.90;;;12.00;99.90;;;;;;5073735;28;21198;-49
2021/07/06 09:10:40;;;;;;;1999.90;999.90;;;12.10;99.90;;;;;;5073229;28;20169;-47
2021/07/06 09:13:32;;;;;;;1999.90;999.90;;;12.20;99.90;;;;;;5071000;28;20726;-53
2021/07/06 09:16:01;;;;;;;1999.90;999.90;;;12.20;99.90;;;;;;5074007;28;20168;-49
2021/07/06 09:18:33;;;;;;;1999.90;999.90;;;12.30;99.90;;;;;;5072971;28;20192;-51
2021/07/06 09:21:04;;;;;;;1999.90;999.90;;;13.40;99.90;;;;;;5073068;28;20164;-51
2021/07/06 09:23:42;;;;;;;1999.90;999.90;;;13.60;99.90;;;;;;5073111;28;20225;-46
2021/07/06 09:26:25;;;;;;;1999.90;999.90;;;13.70;99.90;;;;;;5073535;28;20164;-46
2021/07/06 09:28:57;;;;;;;1999.90;999.90;;;13.60;99.90;;;;;;5072620;28;20218;-51
2021/07/06 09:31:31;;;;;;;1999.90;999.90;;;13.60;99.90;;;;;;5073272;28;20180;-46
2021/07/06 09:34:03;;;;;;;1999.90;999.90;;;13.50;99.90;;;;;;5072791;28;20210;-51
2021/07/06 09:36:45;;;;;;;1999.90;999.90;;;13.50;99.90;;;;;;5073455;28;20200;-48
2021/07/06 09:39:30;;;;;;;1999.90;999.90;;;13.50;99.90;;;;;;5073123;28;20202;-48
2021/07/06 09:42:10;;;;;;;1999.90;999.90;;;13.50;99.90;;;;;;5071701;28;20204;-47
2021/07/06 09:44:41;;;;;;;1999.90;999.90;;;13.60;99.90;;;;;;5073197;28;20168;-54
2021/07/06 09:47:11;;;;;;;1999.90;999.90;;;13.60;99.90;;;;;;5072818;28;20144;-47
2021/07/06 09:49:40;;;;;;;1999.90;999.90;;;13.70;99.90;;;;;;5073451;28;20650;-50
2021/07/06 09:52:13;;;;;;;1999.90;999.90;;;13.80;99.90;;;;;;5073005;28;20156;-51
2021/07/06 09:54:48;;;;;;;1999.90;999.90;;;13.90;99.90;;;;;;5072676;28;20633;-49
2021/07/06 09:57:27;;;;;;;1999.90;999.90;;;14.00;99.90;;;;;;5073096;28;20622;-52
2021/07/06 10:00:11;;;;;;;1999.90;999.90;;;14.10;98.70;;;;;;5072730;28;20165;-54
2021/07/06 10:02:39;;;;;;;1999.90;999.90;;;14.20;99.90;;;;;;5072724;28;20240;-50
2021/07/06 10:05:13;;;;;;;1999.90;999.90;;;14.60;99.90;;;;;;5073044;28;20167;-53
2021/07/06 10:07:40;;;;;;;1999.90;999.90;;;15.40;97.00;;;;;;5072511;28;20250;-45
2021/07/06 10:10:11;;;;;;;1999.90;999.90;;;15.20;96.40;;;;;;5072984;28;20169;-49
2021/07/06 10:12:40;;;;;;;1999.90;999.90;;;15.20;96.30;;;;;;5072540;28;20641;-61
2021/07/06 10:15:10;;;;;;;1999.90;999.90;;;15.40;98.70;;;;;;5054578;28;20638;-55
2021/07/06 10:17:39;;;;;;;1999.90;999.90;;;15.50;96.80;;;;;;5073070;28;20168;-44
2021/07/06 10:20:08;;;;;;;1999.90;999.90;;;15.30;95.30;;;;;;5072279;28;20170;-47
2021/07/06 10:22:35;;;;;;;1999.90;999.90;;;15.30;95.40;;;;;;5072276;28;20245;-54
2021/07/06 10:25:05;;;;;;;1999.90;999.90;;;15.40;97.20;;;;;;5072484;28;20617;-59
2021/07/06 10:27:34;;;;;;;1999.90;999.90;;;15.70;95.00;;;;;;5054159;28;20222;-63
2021/07/06 10:30:23;;;;;;;1999.90;999.90;;;15.80;91.30;;;;;;5071676;28;20172;-59
2021/07/06 10:32:52;;;;;;;1999.90;999.90;;;15.70;91.90;;;;;;5071726;28;20612;-61
2021/07/06 10:35:37;;;;;;;1999.90;999.90;;;15.90;93.00;;;;;;5070996;28;20208;-64
2021/07/06 10:38:31;;;;;;;1999.90;999.90;;;16.10;92.20;;;;;;5072174;28;20176;-61
2021/07/06 10:41:05;;;;;;;1999.90;999.90;;;16.40;92.20;;;;;;5072034;28;20169;-55
2021/07/06 10:43:44;;;;;;;1999.90;999.90;;;16.50;92.00;;;;;;5071982;28;20538;-55
2021/07/06 10:46:25;;;;;;;1999.90;999.90;;;16.50;91.60;;;;;;5071638;28;20245;-53
2021/07/06 10:49:07;;;;;;;1999.90;999.90;;;16.60;91.80;;;;;;5071775;28;20168;-52
2021/07/06 10:51:34;;;;;;;1999.90;999.90;;;16.80;92.10;;;;;;5071857;28;20157;-49
2021/07/06 10:54:12;;;;;;;1999.90;999.90;;;17.00;92.40;;;;;;5071352;28;20635;-51
2021/07/06 10:56:43;;;;;;;1999.90;999.90;;;17.00;92.90;;;;;;5071750;28;20471;-48
2021/07/06 10:59:30;;;;;;;1999.90;999.90;;;17.10;90.30;;;;;;5071733;28;20169;-45
2021/07/06 11:02:03;;;;;;;1999.90;999.90;;;16.90;91.60;;;;;;5071340;28;20279;-51
2021/07/06 11:04:40;;;;;;;1999.90;999.90;;;16.80;91.60;;;;;;5071947;28;20161;-50
2021/07/06 11:07:07;;;;;;;1999.90;999.90;;;16.80;91.60;;;;;;5071453;28;20172;-46
2021/07/06 11:09:34;;;;;;;1999.90;999.90;;;16.80;93.00;;;;;;5071735;28;20382;-53
2021/07/06 11:12:23;;;;;;;1999.90;999.90;;;16.70;92.40;;;;;;5071728;28;20234;-47
2021/07/06 11:14:55;;;;;;;1999.90;999.90;;;16.70;80.70;;;;;;5070961;28;20175;-45
2021/07/06 11:17:45;;;;;;;1999.90;999.90;;;16.60;80.50;;;;;;5071185;28;20571;-47
2021/07/06 11:20:33;;;;;;;1999.90;999.90;;;16.70;79.90;;;;;;5071591;28;20161;-46
2021/07/06 11:23:01;;;;;;;1999.90;999.90;;;16.70;70.30;;;;;;5071370;28;20207;-49
2021/07/06 11:25:32;;;;;;;1999.90;999.90;;;16.60;69.30;;;;;;5071293;28;20407;-52
2021/07/06 11:28:05;;;;;;;1999.90;999.90;;;16.70;71.20;;;;;;5071407;28;20903;-58
2021/07/06 11:30:56;;;;;;;1999.90;999.90;;;17.10;71.70;;;;;;5070813;28;20230;-61
2021/07/06 11:33:37;;;;;;;1999.90;999.90;;;17.30;73.30;;;;;;5070916;28;20655;-43
2021/07/06 11:36:16;;;;;;;1999.90;999.90;;;17.40;67.40;;;;;;5070393;28;20192;-60
2021/07/06 11:38:46;;;;;;;1999.90;999.90;;;17.40;65.70;;;;;;5071234;28;20154;-46
2021/07/06 11:41:17;;;;;;;1999.90;999.90;;;17.20;57.80;;;;;;5071357;28;20611;-62
2021/07/06 11:43:44;;;;;;;1999.90;999.90;;;17.30;60.50;;;;;;5070762;28;20607;-53
2021/07/06 11:46:16;;;;;;;1999.90;999.90;;;17.50;58.00;;;;;;5071208;28;20222;-53
2021/07/06 11:48:47;;;;;;;1999.90;999.90;;;17.30;53.50;;;;;;5070875;28;20164;-47
2021/07/06 11:51:16;;;;;;;1999.90;999.90;;;17.40;56.10;;;;;;5069652;28;20175;-60
2021/07/06 11:53:45;;;;;;;1999.90;999.90;;;17.30;58.90;;;;;;5070996;28;20177;-50
2021/07/06 11:56:13;;;;;;;1999.90;999.90;;;17.40;57.20;;;;;;5070776;28;20169;-43
2021/07/06 11:58:41;;;;;;;1999.90;999.90;;;17.40;54.60;;;;;;5070984;28;20160;-44
2021/07/06 12:01:12;;;;;;;1999.90;999.90;;;17.40;55.10;;;;;;5070892;28;20631;-50
2021/07/06 12:03:41;;;;;;;1999.90;999.90;;;17.40;57.00;;;;;;5070638;28;20183;-45
2021/07/06 12:06:12;;;;;;;1999.90;999.90;;;17.40;71.00;;;;;;5070917;28;20165;-43
2021/07/06 12:08:53;;;;;;;1999.90;999.90;;;17.50;69.30;;;;;;5070927;28;20179;-64
2021/07/06 12:11:24;;;;;;;1999.90;999.90;;;17.60;74.40;;;;;;5070362;28;20226;-44
2021/07/06 12:14:02;;;;;;;1999.90;999.90;;;17.70;82.00;;;;;;5070939;28;20172;-47
2021/07/06 12:16:34;;;;;;;1999.90;999.90;;;17.90;76.00;;;;;;5070431;28;20678;-48
2021/07/06 12:19:10;;;;;;;1999.90;999.90;;;18.30;73.50;;;;;;5070576;28;20176;-50